Time;durP1;ratioP1;P1;durP2;ratioP2;P2;SDS_P1;SDS_P2;PMS_P1;PMS_P2;Temp;Humidity;BMP_temperature;BMP_pressure;BME280_temperature;BME280_humidity;BME280_pressure;Samples;Min_cycle;Max_cycle;Signal;HPM_P1;HPM_P2
2023/10/31 00:00:18;;;;;;;5.97;4.47;;;;;;;12.46;91.66;99024.06;5028943;28;20231;-74
2023/10/31 00:02:45;;;;;;;10.57;5.13;;;;;;;12.47;91.85;99003.66;5027925;28;20247;-76
2023/10/31 00:05:12;;;;;;;8.40;4.83;;;;;;;12.47;91.49;99004.41;5029500;28;20231;-74
2023/10/31 00:07:38;;;;;;;7.30;4.80;;;;;;;12.47;92.15;99006.31;5025869;28;20219;-76
2023/10/31 00:10:05;;;;;;;7.47;5.27;;;;;;;12.47;91.69;99009.69;5028151;28;20223;-75
2023/10/31 00:12:31;;;;;;;7.80;5.43;;;;;;;12.48;91.88;99013.84;5022970;28;20214;-74
2023/10/31 00:14:58;;;;;;;9.30;5.43;;;;;;;12.47;91.47;99012.34;5027527;28;20211;-74
2023/10/31 00:17:24;;;;;;;9.73;5.03;;;;;;;12.48;91.48;98997.22;5031125;28;20196;-77
2023/10/31 00:19:52;;;;;;;9.03;5.23;;;;;;;12.48;91.45;99003.25;5029633;28;20662;-74
2023/10/31 00:22:19;;;;;;;7.13;4.57;;;;;;;12.47;91.42;99009.69;5026392;28;20203;-74
2023/10/31 00:24:45;;;;;;;14.13;5.57;;;;;;;12.46;91.97;99000.25;5020962;28;20200;-75
2023/10/31 00:27:12;;;;;;;7.47;5.53;;;;;;;12.47;92.76;98996.47;5023434;28;20215;-75
2023/10/31 00:29:38;;;;;;;8.93;5.53;;;;;;;12.47;91.94;99001.75;5026886;28;20204;-74
2023/10/31 00:32:05;;;;;;;8.50;5.83;;;;;;;12.47;91.64;98995.72;5007861;28;20659;-74
2023/10/31 00:34:33;;;;;;;8.77;5.63;;;;;;;12.46;91.44;98994.94;5001886;28;20208;-74
2023/10/31 00:37:01;;;;;;;8.60;6.20;;;;;;;12.45;91.96;98984.72;5009106;28;20196;-75
2023/10/31 00:39:27;;;;;;;11.17;6.07;;;;;;;12.45;91.68;98990.78;5025269;28;20207;-76
2023/10/31 00:41:54;;;;;;;7.37;5.33;;;;;;;12.46;92.37;98975.66;5009488;28;20220;-75
2023/10/31 00:44:20;;;;;;;10.67;5.53;;;;;;;12.44;91.96;98968.09;5024403;28;20212;-74
2023/10/31 00:46:46;;;;;;;10.30;6.37;;;;;;;12.43;92.35;98963.91;5025090;28;20627;-75
2023/10/31 00:49:13;;;;;;;8.27;6.20;;;;;;;12.43;92.15;98961.28;5027559;28;20633;-75
2023/10/31 00:51:39;;;;;;;15.20;6.13;;;;;;;12.43;92.21;98963.91;5021661;28;20734;-75
2023/10/31 00:54:07;;;;;;;9.20;6.07;;;;;;;12.42;91.85;98964.31;5023482;28;20680;-74
2023/10/31 00:56:34;;;;;;;12.50;6.33;;;;;;;12.41;92.02;98965.44;5004653;28;20226;-76
2023/10/31 00:59:00;;;;;;;10.33;6.20;;;;;;;12.40;92.07;98951.44;5025566;28;20195;-75
2023/10/31 01:01:28;;;;;;;10.80;5.90;;;;;;;12.40;92.44;98954.09;5025216;28;20286;-75
2023/10/31 01:03:54;;;;;;;9.40;6.40;;;;;;;12.39;92.24;98951.81;5007651;28;20200;-74
2023/10/31 01:06:21;;;;;;;8.47;5.97;;;;;;;12.38;92.23;98953.69;5013496;28;20234;-75
2023/10/31 01:08:47;;;;;;;9.60;6.13;;;;;;;12.37;91.76;98954.84;5006200;28;20208;-75
2023/10/31 01:11:15;;;;;;;10.23;6.77;;;;;;;12.35;92.07;98951.06;5012886;28;20841;-75
2023/10/31 01:13:41;;;;;;;10.77;6.60;;;;;;;12.35;92.00;98946.53;5024539;28;20200;-74
2023/10/31 01:16:08;;;;;;;8.47;6.13;;;;;;;12.34;91.98;98949.53;5022418;28;20204;-75
2023/10/31 01:18:34;;;;;;;11.80;6.20;;;;;;;12.32;91.94;98952.56;5021787;28;20201;-75
2023/10/31 01:21:01;;;;;;;11.67;6.17;;;;;;;12.31;91.92;98942.38;5011318;28;20223;-75
2023/10/31 01:23:27;;;;;;;7.13;5.87;;;;;;;12.29;92.43;98940.09;5001890;28;20502;-75
2023/10/31 01:25:54;;;;;;;11.87;6.60;;;;;;;12.27;91.95;98931.00;5024435;28;20212;-75
2023/10/31 01:28:21;;;;;;;9.80;6.20;;;;;;;12.26;92.39;98938.19;5026594;28;20571;-75
2023/10/31 01:30:48;;;;;;;9.03;6.40;;;;;;;12.25;92.00;98943.84;5019509;28;20221;-75
2023/10/31 01:33:15;;;;;;;8.13;5.83;;;;;;;12.21;92.47;98946.50;5003531;28;20211;-74
2023/10/31 01:35:42;;;;;;;11.03;6.10;;;;;;;12.21;92.30;98951.03;5009234;28;20561;-74
2023/10/31 01:38:08;;;;;;;8.83;6.10;;;;;;;12.18;92.34;98952.56;5007452;28;20238;-75
2023/10/31 01:40:35;;;;;;;10.17;6.27;;;;;;;12.16;92.54;98956.69;5022070;28;20226;-75
2023/10/31 01:43:01;;;;;;;9.33;5.80;;;;;;;12.14;92.48;98956.31;5006565;28;20859;-74
2023/10/31 01:45:29;;;;;;;9.30;5.93;;;;;;;12.13;92.31;98946.84;5005418;28;20208;-74
2023/10/31 01:47:55;;;;;;;7.50;5.90;;;;;;;12.10;92.52;98940.41;5005413;28;20659;-75
2023/10/31 01:50:22;;;;;;;8.90;5.87;;;;;;;12.09;92.65;98938.91;5008492;28;20653;-75
2023/10/31 01:52:49;;;;;;;9.90;5.97;;;;;;;12.06;92.83;98920.38;5022513;28;20203;-75
2023/10/31 01:55:15;;;;;;;10.63;6.37;;;;;;;12.03;92.57;98918.47;5006273;28;20200;-75
2023/10/31 01:57:45;;;;;;;9.47;5.93;;;;;;;12.02;92.58;98911.69;5025653;28;20203;-75
2023/10/31 02:00:13;;;;;;;8.20;5.63;;;;;;;11.98;92.88;98911.69;5010046;28;20891;-75
2023/10/31 02:02:42;;;;;;;9.10;6.33;;;;;;;11.96;92.46;98905.97;5023122;28;20210;-76
2023/10/31 02:05:10;;;;;;;9.27;5.87;;;;;;;11.95;93.27;98911.66;5008592;28;20220;-74
2023/10/31 02:07:36;;;;;;;8.90;5.87;;;;;;;11.92;92.66;98899.19;5009670;28;20424;-74
2023/10/31 02:10:03;;;;;;;8.70;6.23;;;;;;;11.91;92.93;98892.38;5003368;28;20254;-74
2023/10/31 02:12:33;;;;;;;7.20;5.47;;;;;;;11.90;92.82;98888.22;5006685;28;20347;-75
2023/10/31 02:15:00;;;;;;;11.03;6.30;;;;;;;11.88;93.53;98874.59;5004528;28;20196;-75
2023/10/31 02:17:27;;;;;;;9.50;6.23;;;;;;;11.86;92.97;98877.63;5005968;28;20203;-75
2023/10/31 02:19:55;;;;;;;9.90;6.43;;;;;;;11.86;92.78;98876.88;5005535;28;20215;-75
2023/10/31 02:22:22;;;;;;;8.33;6.77;;;;;;;11.85;92.92;98881.41;5007633;28;20208;-74
2023/10/31 02:24:49;;;;;;;10.67;6.57;;;;;;;11.84;93.60;98868.53;5002953;28;20216;-74
2023/10/31 02:27:15;;;;;;;8.43;6.53;;;;;;;11.85;93.38;98870.09;5007184;28;20207;-75
2023/10/31 02:29:42;;;;;;;9.37;6.27;;;;;;;11.85;93.50;98859.50;5006573;28;20204;-74
2023/10/31 02:32:08;;;;;;;7.43;6.10;;;;;;;11.85;93.72;98867.44;5006766;28;20207;-75
2023/10/31 02:34:34;;;;;;;9.37;6.20;;;;;;;11.85;93.49;98862.88;5021924;28;20213;-74
2023/10/31 02:37:01;;;;;;;10.87;6.90;;;;;;;11.85;93.74;98865.53;5003984;28;20203;-74
2023/10/31 02:39:28;;;;;;;10.43;6.23;;;;;;;11.85;93.19;98862.88;5006386;28;20206;-75
2023/10/31 02:41:55;;;;;;;8.53;6.13;;;;;;;11.85;93.42;98862.16;5003676;28;20298;-74
2023/10/31 02:44:21;;;;;;;7.57;6.13;;;;;;;11.84;93.74;98856.09;5008406;28;20231;-74
2023/10/31 02:46:47;;;;;;;10.03;6.40;;;;;;;11.84;94.02;98852.69;5022606;28;20230;-74
2023/10/31 02:49:14;;;;;;;12.50;6.23;;;;;;;11.84;93.32;98855.31;5006283;28;20218;-75
2023/10/31 02:51:40;;;;;;;9.83;6.13;;;;;;;11.83;94.09;98864.41;5020790;28;20228;-74
2023/10/31 02:54:07;;;;;;;15.63;7.07;;;;;;;11.83;93.62;98864.41;5006598;28;20208;-74
2023/10/31 02:56:34;;;;;;;11.17;6.53;;;;;;;11.82;93.63;98862.88;5007969;28;20204;-74
2023/10/31 02:59:01;;;;;;;10.20;6.80;;;;;;;11.82;94.13;98873.47;5004390;28;20208;-74
2023/10/31 03:01:29;;;;;;;8.77;6.37;;;;;;;11.82;94.14;98876.09;5026080;28;20212;-74
2023/10/31 03:03:55;;;;;;;10.30;7.23;;;;;;;11.82;94.29;98886.69;5019006;28;20286;-74
2023/10/31 03:06:22;;;;;;;10.97;6.10;;;;;;;11.80;94.19;98867.81;5007059;28;20212;-74
2023/10/31 03:08:48;;;;;;;10.00;6.50;;;;;;;11.80;94.59;98871.19;5007756;28;20200;-75
2023/10/31 03:11:22;;;;;;;8.60;6.37;;;;;;;11.80;95.13;98865.91;5002335;28;20228;-74
2023/10/31 03:13:50;;;;;;;11.07;6.20;;;;;;;11.80;94.60;98871.19;5022958;28;20270;-75
2023/10/31 03:16:17;;;;;;;8.93;6.57;;;;;;;11.80;95.20;98873.09;5024585;28;20517;-76
2023/10/31 03:18:43;;;;;;;10.97;6.10;;;;;;;11.82;95.52;98878.75;5022709;28;20381;-75
2023/10/31 03:21:09;;;;;;;9.80;6.10;;;;;;;11.83;95.96;98873.09;5005738;28;20228;-75
2023/10/31 03:23:36;;;;;;;17.30;6.37;;;;;;;11.84;95.55;98871.97;5001050;28;20200;-76
2023/10/31 03:26:02;;;;;;;10.10;6.90;;;;;;;11.85;96.60;98862.88;5003250;28;20226;-75
2023/10/31 03:28:29;;;;;;;8.10;6.13;;;;;;;11.86;96.30;98874.22;5022165;28;20213;-76
2023/10/31 03:30:56;;;;;;;9.27;6.03;;;;;;;11.87;96.87;98871.22;5004580;28;20238;-75
2023/10/31 03:33:23;;;;;;;11.10;6.80;;;;;;;11.89;97.08;98876.88;5006186;28;20272;-75
2023/10/31 03:35:50;;;;;;;11.30;6.40;;;;;;;11.90;96.47;98875.00;5023215;28;20253;-76
2023/10/31 03:38:16;;;;;;;8.60;6.83;;;;;;;11.91;97.12;98874.59;5018199;28;20292;-75
2023/10/31 03:40:42;;;;;;;11.63;6.80;;;;;;;11.93;97.66;98876.88;5022195;28;20226;-75
2023/10/31 03:43:11;;;;;;;9.60;7.03;;;;;;;11.94;97.64;98878.41;5005127;28;20208;-75
2023/10/31 03:45:37;;;;;;;10.23;7.00;;;;;;;11.95;97.71;98879.94;5022567;28;20228;-75
2023/10/31 03:48:05;;;;;;;10.27;6.87;;;;;;;11.97;97.84;98872.38;5026218;28;20287;-75
2023/10/31 03:50:32;;;;;;;11.23;8.00;;;;;;;12.00;98.28;98882.22;5010372;28;20219;-76
2023/10/31 03:52:58;;;;;;;11.30;7.97;;;;;;;12.02;98.58;98880.72;5018899;28;20197;-75
2023/10/31 03:55:25;;;;;;;13.10;8.77;;;;;;;12.05;99.64;98887.88;5021773;28;20196;-75
2023/10/31 03:57:51;;;;;;;9.90;7.83;;;;;;;12.08;99.50;98889.78;5009912;28;20265;-75
2023/10/31 04:00:18;;;;;;;13.10;9.23;;;;;;;12.12;99.54;98882.59;5001537;28;20889;-76
2023/10/31 04:02:45;;;;;;;16.07;10.30;;;;;;;12.19;100.00;98885.25;5006348;28;20746;-75
2023/10/31 04:05:13;;;;;;;13.83;9.97;;;;;;;12.24;100.00;98892.81;5027210;28;20242;-75
2023/10/31 04:07:39;;;;;;;13.53;10.07;;;;;;;12.28;100.00;98895.47;5027489;28;20211;-75
2023/10/31 04:10:07;;;;;;;14.50;10.60;;;;;;;12.31;100.00;98908.72;5006824;28;20286;-75
2023/10/31 04:12:34;;;;;;;17.13;10.10;;;;;;;12.35;100.00;98903.41;5013167;28;20290;-75
2023/10/31 04:15:00;;;;;;;15.47;11.40;;;;;;;12.41;100.00;98896.59;5030424;28;20203;-75
2023/10/31 04:17:26;;;;;;;16.30;10.93;;;;;;;12.45;100.00;98900.78;5025594;28;20207;-75
2023/10/31 04:19:53;;;;;;;13.43;10.33;;;;;;;12.48;100.00;98904.56;5025659;28;20227;-75
2023/10/31 04:22:20;;;;;;;15.63;10.93;;;;;;;12.50;100.00;98900.41;5023251;28;20204;-76
2023/10/31 04:24:47;;;;;;;18.83;11.00;;;;;;;12.54;100.00;98901.19;5026090;28;20204;-75
2023/10/31 04:27:13;;;;;;;15.57;11.07;;;;;;;12.55;100.00;98900.03;5025358;28;20235;-76
2023/10/31 04:29:39;;;;;;;14.43;10.43;;;;;;;12.56;100.00;98898.91;5009523;28;20203;-74
2023/10/31 04:32:06;;;;;;;14.30;10.10;;;;;;;12.58;100.00;98906.47;5023294;28;20210;-76
2023/10/31 04:34:33;;;;;;;14.30;10.10;;;;;;;12.58;100.00;98890.56;5024441;28;20211;-74
2023/10/31 04:36:59;;;;;;;14.13;10.17;;;;;;;12.60;100.00;98904.94;5024483;28;20203;-74
2023/10/31 04:39:27;;;;;;;14.73;10.03;;;;;;;12.61;100.00;98893.22;5023220;28;20432;-74
2023/10/31 04:41:53;;;;;;;13.47;9.77;;;;;;;12.62;100.00;98881.47;5026448;28;20694;-75
2023/10/31 04:44:19;;;;;;;13.40;9.97;;;;;;;12.63;100.00;98880.34;5023634;28;20210;-75
2023/10/31 04:46:47;;;;;;;13.47;9.90;;;;;;;12.64;100.00;98878.47;5025256;28;20215;-75
2023/10/31 04:49:13;;;;;;;13.60;9.77;;;;;;;12.64;100.00;98873.16;5026928;28;20196;-76
2023/10/31 04:51:40;;;;;;;12.63;9.67;;;;;;;12.65;100.00;98861.44;5022596;28;20223;-76
2023/10/31 04:54:06;;;;;;;12.03;9.27;;;;;;;12.65;100.00;98862.19;5027659;28;20622;-75
2023/10/31 04:56:34;;;;;;;12.73;9.00;;;;;;;12.66;100.00;98863.72;5026045;28;20279;-75
2023/10/31 04:59:01;;;;;;;12.60;9.30;;;;;;;12.67;100.00;98869.75;5025282;28;20222;-75
2023/10/31 05:01:27;;;;;;;15.57;9.53;;;;;;;12.68;100.00;98884.53;5024395;28;20227;-75
2023/10/31 05:03:53;;;;;;;10.13;8.67;;;;;;;12.67;100.00;98880.34;5021822;28;20191;-75
2023/10/31 05:06:20;;;;;;;12.37;9.53;;;;;;;12.67;100.00;98891.69;5023778;28;20564;-76
2023/10/31 05:08:47;;;;;;;12.23;9.30;;;;;;;12.67;100.00;98894.34;5024135;28;20307;-76
2023/10/31 05:11:13;;;;;;;12.07;8.83;;;;;;;12.68;100.00;98903.06;5025594;28;20226;-75
2023/10/31 05:13:41;;;;;;;10.67;8.53;;;;;;;12.68;100.00;98908.34;5030239;28;20689;-76
2023/10/31 05:16:08;;;;;;;12.00;8.40;;;;;;;12.67;100.00;98904.94;5026063;28;20205;-75
2023/10/31 05:18:37;;;;;;;10.77;8.93;;;;;;;12.67;100.00;98915.53;5024175;28;20192;-75
2023/10/31 05:21:04;;;;;;;11.10;7.50;;;;;;;12.68;100.00;98909.09;5026434;28;20232;-75
2023/10/31 05:23:30;;;;;;;10.03;7.57;;;;;;;12.69;100.00;98915.16;5021688;28;20196;-75
2023/10/31 05:25:57;;;;;;;9.40;7.23;;;;;;;12.67;100.00;98912.88;5024017;28;20558;-75
2023/10/31 05:28:23;;;;;;;11.03;6.50;;;;;;;12.68;100.00;98913.66;5023766;28;20196;-75
2023/10/31 05:30:51;;;;;;;8.07;6.30;;;;;;;12.67;100.00;98920.06;5023468;28;20311;-74
2023/10/31 05:33:18;;;;;;;6.93;5.13;;;;;;;12.67;100.00;98930.66;5023328;28;20627;-74
2023/10/31 05:35:44;;;;;;;6.70;5.70;;;;;;;12.67;100.00;98933.31;5025456;28;20557;-75
2023/10/31 05:38:10;;;;;;;6.40;4.80;;;;;;;12.66;100.00;98926.50;5025781;28;20202;-75
2023/10/31 05:40:37;;;;;;;4.57;4.03;;;;;;;12.64;100.00;98932.19;5024932;28;20216;-74
2023/10/31 05:43:03;;;;;;;5.70;4.43;;;;;;;12.65;100.00;98930.28;5006896;28;20769;-74
2023/10/31 05:45:31;;;;;;;5.20;3.90;;;;;;;12.65;100.00;98936.34;5025103;28;20200;-75
2023/10/31 05:47:58;;;;;;;4.20;3.40;;;;;;;12.63;100.00;98935.97;5026769;28;20214;-75
2023/10/31 05:50:25;;;;;;;5.03;3.20;;;;;;;12.62;100.00;98942.38;5024858;28;20227;-75
2023/10/31 05:52:51;;;;;;;3.30;2.97;;;;;;;12.63;100.00;98937.88;5024617;28;20204;-75
2023/10/31 05:55:18;;;;;;;3.43;2.87;;;;;;;12.61;100.00;98940.88;5022585;28;20204;-75
2023/10/31 05:57:44;;;;;;;3.50;2.60;;;;;;;12.60;100.00;98947.31;5025733;28;20202;-76
2023/10/31 06:00:11;;;;;;;2.60;2.40;;;;;;;12.60;100.00;98946.56;5023205;28;20227;-74
2023/10/31 06:02:41;;;;;;;3.20;2.70;;;;;;;12.59;100.00;98955.63;5004167;28;20305;-75
2023/10/31 06:05:09;;;;;;;3.47;2.70;;;;;;;12.60;100.00;98957.13;5024030;28;20208;-74
2023/10/31 06:07:35;;;;;;;3.00;2.70;;;;;;;12.59;100.00;98959.03;5022700;28;20309;-75
2023/10/31 06:10:02;;;;;;;2.37;2.13;;;;;;;12.59;100.00;98966.22;5023892;28;20280;-75
2023/10/31 06:12:29;;;;;;;2.97;2.53;;;;;;;12.57;100.00;98971.88;5024103;28;20196;-75
2023/10/31 06:14:55;;;;;;;2.50;2.30;;;;;;;12.58;100.00;98981.34;5019155;28;20678;-75
2023/10/31 06:17:22;;;;;;;5.33;2.43;;;;;;;12.57;100.00;98982.47;5004594;28;20354;-75
2023/10/31 06:19:48;;;;;;;3.93;2.70;;;;;;;12.56;100.00;98985.50;5024814;28;20218;-76
2023/10/31 06:22:16;;;;;;;7.20;2.77;;;;;;;12.57;100.00;98990.44;5018810;28;20606;-75
2023/10/31 06:24:43;;;;;;;3.00;2.70;;;;;;;12.57;100.00;98985.13;5025797;28;20215;-75
2023/10/31 06:27:09;;;;;;;4.43;3.00;;;;;;;12.58;100.00;98991.19;5024655;28;20212;-75
2023/10/31 06:29:35;;;;;;;2.83;2.63;;;;;;;12.57;100.00;98992.34;5023062;28;20563;-75
2023/10/31 06:32:02;;;;;;;2.90;2.70;;;;;;;12.57;100.00;98998.38;5021988;28;20214;-75
2023/10/31 06:34:28;;;;;;;4.60;3.20;;;;;;;12.58;100.00;99007.09;5004744;28;20204;-75
2023/10/31 06:36:54;;;;;;;4.20;3.73;;;;;;;12.58;100.00;99004.44;5025731;28;20214;-75
2023/10/31 06:39:23;;;;;;;4.93;4.10;;;;;;;12.58;100.00;99005.16;5025851;28;20210;-75
2023/10/31 06:41:49;;;;;;;7.07;4.20;;;;;;;12.59;100.00;99008.59;5024175;28;20228;-75
2023/10/31 06:44:16;;;;;;;4.90;4.00;;;;;;;12.60;100.00;99020.69;5026135;28;20663;-75
2023/10/31 06:46:42;;;;;;;5.50;4.27;;;;;;;12.59;100.00;99009.34;5026835;28;20685;-76
2023/10/31 06:49:08;;;;;;;5.40;4.07;;;;;;;12.59;100.00;99014.66;5023153;28;20663;-75
2023/10/31 06:51:35;;;;;;;5.37;4.10;;;;;;;12.60;100.00;99028.63;5022568;28;20242;-75
2023/10/31 06:54:01;;;;;;;4.47;3.93;;;;;;;12.62;100.00;99023.75;5003690;28;20204;-76
2023/10/31 06:56:29;;;;;;;4.40;3.73;;;;;;;12.64;100.00;99037.34;5028910;28;20204;-75
2023/10/31 06:58:55;;;;;;;4.83;3.90;;;;;;;12.63;100.00;99041.88;5026831;28;20247;-75
2023/10/31 07:01:22;;;;;;;5.90;3.93;;;;;;;12.66;100.00;99043.03;5020247;28;20227;-75
2023/10/31 07:03:49;;;;;;;4.67;3.87;;;;;;;12.66;100.00;99035.84;5020907;28;20207;-75
2023/10/31 07:06:15;;;;;;;4.63;3.80;;;;;;;12.68;100.00;99041.50;5022775;28;20235;-75
2023/10/31 07:08:41;;;;;;;4.73;4.23;;;;;;;12.70;100.00;99041.91;5023640;28;20200;-75
2023/10/31 07:11:08;;;;;;;4.50;4.00;;;;;;;12.71;100.00;99050.59;5020483;28;20271;-76
2023/10/31 07:13:35;;;;;;;7.27;4.33;;;;;;;12.72;100.00;99050.22;5021964;28;20571;-75
2023/10/31 07:16:02;;;;;;;6.60;4.47;;;;;;;12.73;100.00;99054.38;5021200;28;20860;-76
2023/10/31 07:18:28;;;;;;;10.73;5.13;;;;;;;12.75;100.00;99056.66;5025260;28;20208;-75
2023/10/31 07:20:54;;;;;;;4.83;4.10;;;;;;;12.77;100.00;99055.16;5023813;28;20239;-75
2023/10/31 07:23:21;;;;;;;6.77;4.40;;;;;;;12.80;100.00;99054.41;5022978;28;20266;-75
2023/10/31 07:25:47;;;;;;;5.73;4.50;;;;;;;12.82;100.00;99068.03;5021818;28;20223;-75
2023/10/31 07:28:14;;;;;;;5.70;4.27;;;;;;;12.82;100.00;99065.38;5021377;28;20227;-76
2023/10/31 07:30:41;;;;;;;5.77;4.27;;;;;;;12.84;100.00;99063.09;5018855;28;20228;-76
2023/10/31 07:33:08;;;;;;;5.47;4.10;;;;;;;12.85;100.00;99062.00;5022828;28;20210;-75
2023/10/31 07:35:34;;;;;;;4.10;3.70;;;;;;;12.86;100.00;99071.44;5024689;28;20289;-75
2023/10/31 07:38:00;;;;;;;4.23;3.43;;;;;;;12.87;100.00;99074.84;5023864;28;20550;-76
2023/10/31 07:40:27;;;;;;;5.47;3.10;;;;;;;12.88;100.00;99094.91;5025591;28;20631;-75
2023/10/31 07:42:56;;;;;;;3.10;2.80;;;;;;;12.88;100.00;99089.63;5027576;28;20251;-74
2023/10/31 07:45:22;;;;;;;4.00;3.00;;;;;;;12.88;100.00;99092.28;5012000;28;20558;-76
2023/10/31 07:47:50;;;;;;;4.17;2.80;;;;;;;12.88;99.99;99087.72;5027888;28;20576;-76
2023/10/31 07:50:16;;;;;;;4.13;2.37;;;;;;;12.87;99.75;99083.56;5027707;28;20416;-75
2023/10/31 07:52:43;;;;;;;3.77;2.40;;;;;;;12.89;99.40;99091.13;5024639;28;20220;-75
2023/10/31 07:55:11;;;;;;;2.73;2.30;;;;;;;12.88;99.63;99090.38;5026775;28;20912;-75
2023/10/31 07:57:37;;;;;;;3.07;2.23;;;;;;;12.87;98.21;99099.44;5024069;28;20727;-75
2023/10/31 08:00:05;;;;;;;3.80;2.40;;;;;;;12.88;98.46;99121.41;5027521;28;20306;-75
2023/10/31 08:02:38;;;;;;;2.90;2.03;;;;;;;12.87;97.36;99118.00;5026753;28;20681;-75
2023/10/31 08:05:09;;;;;;;3.17;2.20;;;;;;;12.87;97.32;99127.81;5024775;28;20626;-76
2023/10/31 08:07:35;;;;;;;4.07;1.97;;;;;;;12.85;96.36;99132.75;5025419;28;20223;-76
2023/10/31 08:10:03;;;;;;;2.37;2.10;;;;;;;12.80;95.55;99133.13;5014196;28;20223;-75
2023/10/31 08:12:30;;;;;;;1.87;1.70;;;;;;;12.81;95.06;99145.22;5027014;28;20200;-75
2023/10/31 08:14:56;;;;;;;1.53;1.43;;;;;;;12.80;94.60;99141.06;5028058;28;20196;-76
2023/10/31 08:17:22;;;;;;;1.90;1.80;;;;;;;12.76;93.90;99143.69;5024012;28;20200;-75
2023/10/31 08:19:49;;;;;;;1.80;1.70;;;;;;;12.75;93.49;99136.13;5025595;28;20286;-75
2023/10/31 08:22:16;;;;;;;1.67;1.50;;;;;;;12.74;93.36;99145.94;5023496;28;20941;-77
2023/10/31 08:24:43;;;;;;;2.93;1.60;;;;;;;12.70;92.03;99155.03;5028242;28;20215;-75
2023/10/31 08:27:10;;;;;;;1.50;1.40;;;;;;;12.68;91.20;99170.53;5025712;28;20212;-75
2023/10/31 08:29:36;;;;;;;3.83;1.67;;;;;;;12.65;90.90;99161.44;5023603;28;20204;-76
2023/10/31 08:32:03;;;;;;;1.23;1.07;;;;;;;12.64;90.58;99173.19;5021154;28;20560;-75
2023/10/31 08:34:29;;;;;;;1.30;1.20;;;;;;;12.63;89.80;99178.84;5019496;28;20207;-75
2023/10/31 08:36:57;;;;;;;3.73;1.10;;;;;;;12.61;89.89;99176.56;5024639;28;20221;-76
2023/10/31 08:39:24;;;;;;;1.23;1.13;;;;;;;12.60;89.62;99183.00;5022264;28;20366;-75
2023/10/31 08:41:52;;;;;;;3.13;1.27;;;;;;;12.58;89.14;99198.47;5024043;28;20223;-76
2023/10/31 08:44:18;;;;;;;1.77;1.20;;;;;;;12.59;91.87;99189.41;5022738;28;20206;-75
2023/10/31 08:46:45;;;;;;;1.10;1.00;;;;;;;12.58;89.66;99200.38;5022408;28;20304;-75
2023/10/31 08:49:11;;;;;;;1.00;1.00;;;;;;;12.59;88.33;99184.13;5025358;28;20207;-75
2023/10/31 08:51:37;;;;;;;1.10;1.00;;;;;;;12.61;89.49;99189.03;5025634;28;20741;-76
2023/10/31 08:54:04;;;;;;;1.20;1.10;;;;;;;12.63;88.19;99192.09;5023992;28;21554;-77
2023/10/31 08:56:32;;;;;;;0.87;0.87;;;;;;;12.66;87.50;99192.09;5026613;28;20706;-75
2023/10/31 08:58:58;;;;;;;0.90;0.90;;;;;;;12.70;87.89;99200.03;5024646;28;20211;-75
2023/10/31 09:01:26;;;;;;;1.00;1.00;;;;;;;12.73;85.77;99201.97;5007710;28;20234;-75
2023/10/31 09:03:53;;;;;;;5.67;0.90;;;;;;;12.77;85.10;99205.38;5008851;28;20290;-75
2023/10/31 09:06:19;;;;;;;1.13;1.03;;;;;;;12.81;85.85;99203.50;5007196;28;20487;-75
2023/10/31 09:08:46;;;;;;;1.13;1.03;;;;;;;12.85;86.42;99210.34;5025040;28;21015;-75
2023/10/31 09:11:12;;;;;;;1.43;0.80;;;;;;;12.89;85.35;99213.75;5006264;28;20235;-76
2023/10/31 09:13:40;;;;;;;0.80;0.80;;;;;;;12.97;84.35;99217.97;5024588;28;20199;-76
2023/10/31 09:16:07;;;;;;;0.80;0.80;;;;;;;13.05;84.59;99227.44;5026610;28;20196;-76
2023/10/31 09:18:34;;;;;;;1.10;1.00;;;;;;;13.11;84.70;99217.25;5005953;28;20196;-76
2023/10/31 09:21:04;;;;;;;4.47;2.77;;;;;;;13.15;85.23;99226.00;5028319;28;20320;-75
2023/10/31 09:23:30;;;;;;;2.40;1.10;;;;;;;13.12;83.08;99224.06;5022728;28;20204;-76
2023/10/31 09:25:56;;;;;;;1.47;1.33;;;;;;;13.12;83.61;99227.50;5024593;28;20199;-76
2023/10/31 09:28:23;;;;;;;1.50;1.40;;;;;;;13.13;82.77;99239.59;5023201;28;20216;-76
2023/10/31 09:30:51;;;;;;;1.13;1.03;;;;;;;13.15;82.18;99250.59;5024555;28;20432;-75
2023/10/31 09:33:17;;;;;;;0.70;0.70;;;;;;;13.19;83.03;99240.00;5022125;28;20203;-76
2023/10/31 09:35:44;;;;;;;2.43;0.90;;;;;;;13.18;81.08;99251.72;5028635;28;20200;-75
2023/10/31 09:38:10;;;;;;;0.70;0.70;;;;;;;13.20;80.90;99244.91;5021788;28;20192;-75
2023/10/31 09:40:37;;;;;;;1.17;1.03;;;;;;;13.23;80.29;99256.66;5026376;28;20217;-76
2023/10/31 09:43:04;;;;;;;0.80;0.80;;;;;;;13.27;79.62;99271.47;5026589;28;20287;-77
2023/10/31 09:45:31;;;;;;;0.80;0.80;;;;;;;13.35;80.32;99270.34;5024573;28;20947;-76
2023/10/31 09:48:01;;;;;;;0.70;0.70;;;;;;;13.40;79.86;99269.97;5023451;28;20224;-76
2023/10/31 09:50:28;;;;;;;0.70;0.70;;;;;;;13.42;79.19;99254.47;5019408;28;20224;-75
2023/10/31 09:52:56;;;;;;;2.17;0.80;;;;;;;13.41;80.24;99254.84;5003091;28;20215;-75
2023/10/31 09:55:23;;;;;;;0.80;0.80;;;;;;;13.40;80.60;99261.28;5028967;28;20221;-75
2023/10/31 09:57:49;;;;;;;6.10;1.00;;;;;;;13.36;77.94;99277.16;5023881;28;20210;-76
2023/10/31 10:00:16;;;;;;;1.90;0.70;;;;;;;13.35;77.22;99269.59;5023957;28;20217;-76
2023/10/31 10:02:43;;;;;;;0.80;0.80;;;;;;;13.39;79.12;99280.94;5025247;28;20203;-75
2023/10/31 10:05:11;;;;;;;0.83;0.83;;;;;;;13.46;83.30;99265.06;5024005;28;20238;-75
2023/10/31 10:07:42;;;;;;;0.70;0.50;;;;;;;13.48;79.02;99271.53;5024479;28;20625;-76
2023/10/31 10:10:12;;;;;;;0.60;0.60;;;;;;;13.51;77.90;99281.38;5021569;28;21485;-77
2023/10/31 10:12:42;;;;;;;0.80;0.70;;;;;;;13.56;77.62;99281.00;5022800;28;20235;-74
2023/10/31 10:15:09;;;;;;;0.93;0.80;;;;;;;13.65;78.11;99281.41;5021354;28;20196;-75
2023/10/31 10:17:35;;;;;;;1.20;0.80;;;;;;;13.65;77.38;99281.41;5020905;28;20271;-74
2023/10/31 10:20:12;;;;;;;3.13;0.80;;;;;;;13.70;77.71;99296.19;5006354;28;20587;-76
2023/10/31 10:22:43;;;;;;;0.70;0.70;;;;;;;13.81;77.05;99299.63;5004488;28;20251;-75
2023/10/31 10:25:11;;;;;;;0.70;0.70;;;;;;;13.90;75.08;99287.50;5022306;28;20295;-76
2023/10/31 10:27:38;;;;;;;0.97;0.80;;;;;;;14.00;77.06;99307.22;5002017;28;20220;-75
2023/10/31 10:30:06;;;;;;;1.40;0.60;;;;;;;14.09;79.76;99316.34;5022645;28;20312;-75
2023/10/31 10:32:32;;;;;;;0.60;0.60;;;;;;;14.15;77.35;99316.72;5022557;28;20220;-75
2023/10/31 10:34:58;;;;;;;0.80;0.70;;;;;;;14.21;75.70;99317.88;5025899;28;20227;-75
2023/10/31 10:37:28;;;;;;;0.70;0.70;;;;;;;14.24;76.07;99322.44;5007143;28;20202;-75
2023/10/31 10:39:59;;;;;;;1.90;0.70;;;;;;;14.29;73.92;99328.13;5026375;28;20695;-75
2023/10/31 10:42:35;;;;;;;0.70;0.67;;;;;;;14.37;75.55;99327.00;5022489;28;20209;-75
2023/10/31 10:45:04;;;;;;;1.63;0.90;;;;;;;14.52;75.63;99333.03;5025372;28;20291;-75
2023/10/31 10:47:32;;;;;;;1.33;0.70;;;;;;;14.54;77.77;99336.84;5006968;28;20211;-75
2023/10/31 10:50:02;;;;;;;0.70;0.70;;;;;;;14.56;75.27;99315.97;5025551;28;20230;-75
2023/10/31 10:52:39;;;;;;;5.87;0.70;;;;;;;14.62;74.74;99317.09;5023619;28;20207;-74
2023/10/31 10:55:12;;;;;;;1.03;0.80;;;;;;;14.69;75.77;99309.09;5023933;28;20213;-74
2023/10/31 10:57:46;;;;;;;0.83;0.70;;;;;;;14.78;71.64;99322.75;5022902;28;20580;-74
2023/10/31 11:00:14;;;;;;;0.67;0.67;;;;;;;14.85;72.78;99336.03;5008717;28;20231;-75
2023/10/31 11:02:45;;;;;;;1.13;1.03;;;;;;;14.92;71.24;99345.91;5024640;28;20195;-75
2023/10/31 11:05:12;;;;;;;0.63;0.57;;;;;;;14.98;70.66;99336.38;5006124;28;20236;-74
2023/10/31 11:07:41;;;;;;;0.60;0.60;;;;;;;14.99;73.61;99341.31;5025748;28;22753;-75
2023/10/31 11:10:09;;;;;;;1.03;0.40;;;;;;;14.96;68.88;99331.44;5022021;28;20228;-75
2023/10/31 11:12:39;;;;;;;0.97;0.50;;;;;;;14.98;65.90;99336.38;5026514;28;20191;-74
2023/10/31 11:15:07;;;;;;;0.50;0.50;;;;;;;14.99;68.13;99328.03;5007132;28;20196;-75
2023/10/31 11:17:36;;;;;;;0.40;0.40;;;;;;;15.01;67.86;99319.66;5023731;28;20535;-74
2023/10/31 11:20:04;;;;;;;0.50;0.50;;;;;;;15.02;71.91;99323.84;5027827;28;20277;-75
2023/10/31 11:22:40;;;;;;;0.50;0.50;;;;;;;14.99;70.48;99319.28;5022558;28;21103;-75
2023/10/31 11:25:08;;;;;;;0.50;0.50;;;;;;;14.98;72.03;99313.22;5024974;28;20207;-75
2023/10/31 11:27:35;;;;;;;1.17;0.43;;;;;;;15.00;70.48;99321.56;5029886;28;20224;-74